Time;durP1;ratioP1;P1;durP2;ratioP2;P2;SDS_P1;SDS_P2;PMS_P1;PMS_P2;Temp;Humidity;BMP_temperature;BMP_pressure;BME280_temperature;BME280_humidity;BME280_pressure;Samples;Min_cycle;Max_cycle;Signal;HPM_P1;HPM_P2
2020/12/07 00:00:44;;;;;;;71.95;29.77;;;7.20;99.30;;;;;;5050616;28;20045;-70
2020/12/07 00:03:11;;;;;;;76.90;31.70;;;7.30;99.20;;;;;;5049567;28;20029;-70
2020/12/07 00:05:37;;;;;;;70.38;29.02;;;7.20;99.30;;;;;;5050579;28;20055;-71
2020/12/07 00:08:03;;;;;;;69.72;28.80;;;7.10;99.50;;;;;;5051160;28;20345;-71
2020/12/07 00:10:30;;;;;;;68.47;28.75;;;7.20;99.60;;;;;;5049464;28;20044;-71
2020/12/07 00:12:56;;;;;;;71.80;29.05;;;7.10;99.50;;;;;;5049471;28;20363;-71
2020/12/07 00:15:21;;;;;;;72.63;30.02;;;7.10;99.60;;;;;;5049508;28;20024;-70
2020/12/07 00:17:48;;;;;;;67.57;29.90;;;7.10;99.60;;;;;;5049971;28;20029;-72
2020/12/07 00:20:14;;;;;;;72.60;29.27;;;7.10;99.40;;;;;;5051902;28;20024;-71
2020/12/07 00:22:40;;;;;;;71.43;31.15;;;7.00;99.50;;;;;;5050087;28;20072;-70
2020/12/07 00:25:05;;;;;;;70.70;30.35;;;7.10;99.40;;;;;;5050048;28;20048;-70
2020/12/07 00:27:33;;;;;;;65.00;28.17;;;7.10;99.60;;;;;;5050370;28;20029;-71
2020/12/07 00:30:00;;;;;;;68.07;29.08;;;7.10;99.50;;;;;;5049379;28;20098;-70
2020/12/07 00:32:26;;;;;;;71.43;28.70;;;7.00;99.60;;;;;;5052081;28;20040;-70
2020/12/07 00:34:53;;;;;;;72.90;30.35;;;7.20;99.60;;;;;;5050379;28;20470;-71
2020/12/07 00:37:20;;;;;;;77.35;30.58;;;7.20;99.60;;;;;;5049729;28;20037;-70
2020/12/07 00:39:46;;;;;;;70.55;30.65;;;7.20;99.40;;;;;;5049886;28;20392;-71
2020/12/07 00:42:12;;;;;;;70.63;29.48;;;7.30;99.30;;;;;;5048915;28;20466;-71
2020/12/07 00:44:39;;;;;;;75.43;32.13;;;7.30;99.20;;;;;;5050053;28;20025;-70
2020/12/07 00:47:05;;;;;;;75.07;30.60;;;7.30;99.20;;;;;;5051696;28;20029;-70
2020/12/07 00:49:32;;;;;;;70.28;30.70;;;7.20;99.20;;;;;;5050197;28;20134;-71
2020/12/07 00:51:58;;;;;;;73.30;30.58;;;7.10;99.20;;;;;;5050100;28;20056;-70
2020/12/07 00:54:23;;;;;;;75.95;30.75;;;7.10;99.40;;;;;;5048765;28;20245;-71
2020/12/07 00:56:56;;;;;;;72.88;31.55;;;7.10;99.40;;;;;;5049606;28;20035;-69
2020/12/07 00:59:22;;;;;;;72.00;30.55;;;7.00;99.30;;;;;;5051392;28;20021;-70
2020/12/07 01:01:50;;;;;;;67.75;29.63;;;7.00;99.30;;;;;;5049605;28;20049;-70
2020/12/07 01:04:15;;;;;;;72.97;31.60;;;7.00;99.40;;;;;;5050051;28;20041;-71
2020/12/07 01:06:45;;;;;;;75.82;29.80;;;7.10;99.40;;;;;;5049936;28;20057;-70
2020/12/07 01:09:11;;;;;;;70.72;30.52;;;7.10;99.40;;;;;;5049724;28;20029;-70
2020/12/07 01:11:36;;;;;;;67.00;28.95;;;7.20;99.30;;;;;;5049744;28;20024;-69
2020/12/07 01:14:02;;;;;;;76.25;30.00;;;7.30;99.30;;;;;;5033858;28;20017;-70
2020/12/07 01:16:28;;;;;;;65.43;29.63;;;7.30;99.20;;;;;;5049733;28;20112;-70
2020/12/07 01:18:54;;;;;;;69.88;30.35;;;7.30;99.20;;;;;;5049978;28;20654;-70
2020/12/07 01:21:19;;;;;;;68.30;28.90;;;7.30;99.20;;;;;;5049897;28;20037;-73
2020/12/07 01:23:45;;;;;;;67.25;29.05;;;7.20;99.20;;;;;;5049906;28;20495;-71
2020/12/07 01:26:12;;;;;;;67.38;28.70;;;7.20;99.30;;;;;;5051381;28;20090;-70
2020/12/07 01:28:39;;;;;;;74.73;30.50;;;7.20;99.20;;;;;;5049709;28;20147;-71
2020/12/07 01:31:04;;;;;;;72.15;30.63;;;7.20;99.30;;;;;;5048629;28;20270;-70
2020/12/07 01:33:30;;;;;;;74.18;30.13;;;7.10;99.30;;;;;;5049475;28;20454;-71
2020/12/07 01:35:56;;;;;;;68.68;30.08;;;7.10;99.10;;;;;;5049515;28;20404;-71
2020/12/07 01:38:22;;;;;;;74.18;30.23;;;7.20;99.10;;;;;;5051139;28;20450;-70
2020/12/07 01:40:48;;;;;;;70.50;30.27;;;7.10;99.00;;;;;;5049631;28;20119;-70
2020/12/07 01:43:14;;;;;;;68.10;29.02;;;7.20;99.20;;;;;;5049645;28;20055;-71
2020/12/07 01:45:39;;;;;;;70.60;29.95;;;7.20;99.10;;;;;;5049502;28;20415;-70
2020/12/07 01:48:06;;;;;;;67.30;29.38;;;7.30;99.20;;;;;;5049238;28;20159;-70
2020/12/07 01:50:32;;;;;;;72.57;31.23;;;7.20;99.20;;;;;;5053160;28;20032;-71
2020/12/07 01:52:59;;;;;;;74.35;30.50;;;7.10;99.40;;;;;;5053257;28;20505;-70
2020/12/07 01:55:25;;;;;;;66.65;30.50;;;7.10;99.60;;;;;;5053239;28;20137;-70
2020/12/07 01:57:51;;;;;;;69.85;29.88;;;7.10;99.60;;;;;;5053115;28;20064;-70
2020/12/07 02:00:16;;;;;;;74.70;29.58;;;7.10;99.60;;;;;;5052715;28;20687;-71
2020/12/07 02:02:42;;;;;;;69.97;29.58;;;7.00;99.70;;;;;;5052572;28;20075;-71
2020/12/07 02:05:08;;;;;;;64.13;28.33;;;7.00;99.80;;;;;;5054520;28;20029;-71
2020/12/07 02:07:33;;;;;;;67.75;28.25;;;7.00;99.90;;;;;;5051192;28;20037;-71
2020/12/07 02:09:59;;;;;;;67.70;30.40;;;7.00;99.80;;;;;;5052808;28;20041;-71
2020/12/07 02:12:25;;;;;;;65.70;28.70;;;7.10;99.80;;;;;;5052863;28;20040;-70
2020/12/07 02:14:50;;;;;;;63.97;28.38;;;7.20;99.70;;;;;;5052799;28;20163;-70
2020/12/07 02:17:16;;;;;;;74.72;30.30;;;7.20;99.70;;;;;;5054260;28;20025;-72
2020/12/07 02:19:42;;;;;;;62.13;28.83;;;7.20;99.60;;;;;;5051380;28;20033;-71
2020/12/07 02:22:07;;;;;;;59.78;27.48;;;7.10;99.80;;;;;;5052500;28;20029;-71
2020/12/07 02:24:33;;;;;;;70.70;30.05;;;7.10;99.80;;;;;;5052761;28;20029;-71
2020/12/07 02:26:59;;;;;;;68.15;30.35;;;7.10;99.80;;;;;;5051432;28;20091;-70
2020/12/07 02:29:28;;;;;;;71.63;30.42;;;7.20;99.80;;;;;;5054101;28;20044;-70
2020/12/07 02:32:14;;;;;;;70.65;28.95;;;7.20;99.80;;;;;;5052308;28;20040;-70
2020/12/07 02:34:41;;;;;;;63.75;28.90;;;7.20;99.80;;;;;;5051350;28;20054;-70
2020/12/07 02:37:08;;;;;;;70.20;28.80;;;7.10;99.90;;;;;;5051845;28;20044;-71
2020/12/07 02:39:34;;;;;;;74.60;31.38;;;7.10;99.90;;;;;;5052205;28;20033;-71
2020/12/07 02:42:02;;;;;;;68.95;28.63;;;7.20;99.90;;;;;;5052406;28;20033;-71
2020/12/07 02:44:27;;;;;;;67.90;29.08;;;7.10;99.90;;;;;;5054069;28;20029;-71
2020/12/07 02:46:53;;;;;;;70.63;29.77;;;7.30;99.90;;;;;;5052382;28;20033;-71
2020/12/07 02:49:19;;;;;;;66.68;29.40;;;7.20;99.70;;;;;;5052284;28;20037;-72
2020/12/07 02:51:45;;;;;;;66.90;29.27;;;7.20;99.70;;;;;;5051913;28;20033;-70
2020/12/07 02:54:11;;;;;;;68.53;28.92;;;7.20;99.70;;;;;;5051793;28;20037;-71
2020/12/07 02:56:37;;;;;;;75.07;29.52;;;7.20;99.80;;;;;;5052277;28;20135;-70
2020/12/07 02:59:03;;;;;;;70.15;28.77;;;7.30;99.70;;;;;;5053523;28;20478;-71
2020/12/07 03:01:29;;;;;;;64.03;29.25;;;7.30;99.60;;;;;;5051284;28;20562;-71
2020/12/07 03:03:54;;;;;;;66.32;28.80;;;7.30;99.50;;;;;;5051724;28;20049;-72
2020/12/07 03:06:20;;;;;;;61.35;28.05;;;7.10;99.50;;;;;;5051590;28;20139;-70
2020/12/07 03:08:45;;;;;;;71.47;29.00;;;7.10;99.60;;;;;;5051604;28;20082;-71
2020/12/07 03:11:11;;;;;;;67.70;28.83;;;7.00;99.60;;;;;;5052973;28;20025;-72
2020/12/07 03:13:37;;;;;;;64.05;27.58;;;7.00;99.80;;;;;;5051974;28;20216;-71
2020/12/07 03:16:02;;;;;;;75.28;29.65;;;7.00;99.90;;;;;;5051303;28;20037;-70
2020/12/07 03:18:28;;;;;;;70.80;28.67;;;7.10;99.90;;;;;;5051613;28;20174;-70
2020/12/07 03:20:53;;;;;;;64.35;27.60;;;7.20;99.80;;;;;;5051569;28;20613;-71
2020/12/07 03:23:19;;;;;;;65.05;29.95;;;7.20;99.70;;;;;;5053075;28;20039;-71
2020/12/07 03:25:45;;;;;;;69.80;29.10;;;7.30;99.80;;;;;;5051341;28;20037;-71
2020/12/07 03:28:10;;;;;;;60.88;27.20;;;7.20;99.70;;;;;;5050705;28;20106;-71
2020/12/07 03:30:36;;;;;;;61.40;27.67;;;7.20;99.70;;;;;;5051282;28;20180;-72
2020/12/07 03:33:02;;;;;;;70.85;28.40;;;7.20;99.90;;;;;;5051319;28;20052;-70
2020/12/07 03:35:27;;;;;;;70.90;27.55;;;7.10;99.80;;;;;;5052759;28;20025;-70
2020/12/07 03:37:53;;;;;;;60.85;28.45;;;7.10;99.90;;;;;;5051067;28;20048;-72
2020/12/07 03:40:19;;;;;;;73.25;27.88;;;7.00;99.90;;;;;;5051006;28;20095;-71
2020/12/07 03:42:44;;;;;;;68.47;28.33;;;7.00;99.80;;;;;;5050206;28;20041;-71
2020/12/07 03:45:10;;;;;;;73.30;29.63;;;7.10;99.80;;;;;;5050835;28;20033;-71
2020/12/07 03:47:36;;;;;;;68.07;30.48;;;7.10;99.70;;;;;;5052804;28;20040;-72
2020/12/07 03:50:01;;;;;;;67.82;28.48;;;7.20;99.80;;;;;;5051040;28;20370;-71
2020/12/07 03:52:27;;;;;;;67.45;28.60;;;7.20;99.60;;;;;;5050946;28;20060;-70
2020/12/07 03:54:52;;;;;;;77.25;29.85;;;7.30;99.70;;;;;;5049302;28;20029;-70
2020/12/07 03:57:18;;;;;;;63.10;27.98;;;7.30;99.60;;;;;;5050506;28;20037;-72
2020/12/07 03:59:44;;;;;;;61.35;26.83;;;7.40;99.80;;;;;;5050486;28;20402;-70
2020/12/07 04:02:09;;;;;;;64.43;28.83;;;7.30;99.70;;;;;;5052587;28;20342;-72
2020/12/07 04:04:45;;;;;;;68.03;28.77;;;7.30;99.70;;;;;;5050589;28;20053;-71
2020/12/07 04:07:11;;;;;;;63.45;27.58;;;7.10;99.70;;;;;;5050756;28;20030;-72
2020/12/07 04:09:36;;;;;;;67.10;29.48;;;7.20;99.90;;;;;;5050879;28;20029;-71
2020/12/07 04:12:02;;;;;;;65.40;27.90;;;7.30;99.90;;;;;;5049431;28;20032;-72
2020/12/07 04:14:27;;;;;;;63.67;27.60;;;7.20;99.90;;;;;;5051101;28;20116;-72
2020/12/07 04:16:53;;;;;;;65.20;28.40;;;7.20;99.90;;;;;;5051026;28;20048;-71
2020/12/07 04:19:19;;;;;;;63.38;28.75;;;7.20;99.90;;;;;;5049298;28;20041;-72
2020/12/07 04:21:44;;;;;;;61.47;28.60;;;7.20;99.80;;;;;;5049377;28;20049;-73
2020/12/07 04:24:10;;;;;;;64.85;28.27;;;7.30;99.90;;;;;;5050808;28;20041;-72
2020/12/07 04:26:35;;;;;;;65.90;27.48;;;7.30;99.90;;;;;;5052227;28;20480;-72
2020/12/07 04:29:01;;;;;;;63.83;29.65;;;7.30;99.90;;;;;;5050607;28;20194;-71
2020/12/07 04:31:27;;;;;;;68.47;28.42;;;7.40;99.90;;;;;;5049259;28;20109;-71
2020/12/07 04:33:52;;;;;;;67.03;29.20;;;7.20;99.70;;;;;;5050234;28;20044;-71
2020/12/07 04:36:18;;;;;;;80.55;30.35;;;7.10;99.70;;;;;;5050284;28;20329;-72
2020/12/07 04:38:44;;;;;;;70.57;28.52;;;7.10;99.70;;;;;;5050360;28;20032;-72
2020/12/07 04:41:10;;;;;;;68.40;29.60;;;7.10;99.80;;;;;;5051512;28;20029;-71
2020/12/07 04:43:36;;;;;;;67.75;28.60;;;7.10;99.70;;;;;;5049204;28;20025;-71
2020/12/07 04:46:03;;;;;;;73.68;29.15;;;7.10;99.80;;;;;;5049803;28;20335;-72
2020/12/07 04:48:30;;;;;;;70.70;29.58;;;7.00;99.80;;;;;;5050153;28;20033;-70
2020/12/07 04:50:55;;;;;;;68.60;29.10;;;7.20;99.90;;;;;;5050244;28;20087;-70
2020/12/07 04:53:22;;;;;;;70.32;29.70;;;7.20;99.60;;;;;;5051309;28;20052;-71
2020/12/07 04:55:49;;;;;;;68.47;29.00;;;7.10;99.60;;;;;;5048910;28;20049;-71
2020/12/07 04:58:15;;;;;;;65.82;28.77;;;7.20;99.60;;;;;;5049132;28;20041;-72
2020/12/07 05:00:41;;;;;;;73.30;30.67;;;7.20;99.70;;;;;;5049894;28;20052;-72
2020/12/07 05:03:07;;;;;;;65.45;29.77;;;7.40;99.60;;;;;;5049954;28;20601;-72
2020/12/07 05:05:35;;;;;;;73.80;29.10;;;7.20;99.50;;;;;;5051654;28;20059;-72
2020/12/07 05:08:01;;;;;;;;;;;7.10;99.60;;;;;;5050726;28;20366;-71
2020/12/07 05:10:33;;;;;;;66.47;28.25;;;7.10;99.70;;;;;;5048786;28;20257;-72
2020/12/07 05:13:10;;;;;;;83.55;31.80;;;7.10;99.80;;;;;;5048813;28;20040;-72
2020/12/07 05:15:40;;;;;;;75.70;30.92;;;7.00;99.60;;;;;;5050228;28;20056;-71
2020/12/07 05:18:06;;;;;;;78.30;31.00;;;7.10;99.70;;;;;;5049691;28;20040;-71
2020/12/07 05:20:32;;;;;;;72.43;29.75;;;7.20;99.70;;;;;;5051324;28;20021;-72
2020/12/07 05:23:02;;;;;;;67.80;30.23;;;7.10;99.70;;;;;;5049480;28;20045;-73
2020/12/07 05:25:28;;;;;;;73.22;31.30;;;7.20;99.60;;;;;;5053640;28;20402;-71
2020/12/07 05:27:58;;;;;;;70.90;28.58;;;7.20;99.60;;;;;;5054085;28;20024;-71
2020/12/07 05:30:30;;;;;;;66.82;28.35;;;7.20;99.60;;;;;;5053745;28;20033;-71
2020/12/07 05:32:56;;;;;;;66.07;27.58;;;7.30;99.80;;;;;;5053822;28;22711;-71
2020/12/07 05:35:22;;;;;;;74.68;30.52;;;7.20;99.70;;;;;;5055214;28;20063;-72
2020/12/07 05:37:48;;;;;;;68.13;29.73;;;7.10;99.90;;;;;;5053460;28;20532;-71
2020/12/07 05:40:14;;;;;;;68.05;29.65;;;7.20;99.90;;;;;;5052232;28;20129;-72
2020/12/07 05:42:41;;;;;;;66.82;29.70;;;7.30;99.90;;;;;;5053146;28;20040;-70
2020/12/07 05:45:08;;;;;;;70.45;30.00;;;7.20;99.90;;;;;;5053424;28;20021;-72
2020/12/07 05:47:37;;;;;;;71.88;30.58;;;7.20;99.90;;;;;;5054834;28;20040;-72
2020/12/07 05:50:03;;;;;;;67.35;29.92;;;7.20;99.90;;;;;;5052215;28;20466;-71
2020/12/07 05:52:34;;;;;;;62.38;28.60;;;7.10;99.90;;;;;;5052831;28;20045;-71
2020/12/07 05:55:02;;;;;;;66.30;29.15;;;7.20;99.90;;;;;;5051923;28;20033;-70
2020/12/07 05:57:30;;;;;;;74.30;31.23;;;7.20;99.90;;;;;;5053294;28;20123;-71
2020/12/07 06:00:00;;;;;;;73.30;29.52;;;7.20;99.80;;;;;;5053285;28;20048;-70
2020/12/07 06:02:27;;;;;;;66.35;29.83;;;7.20;99.90;;;;;;5054554;28;20096;-71
2020/12/07 06:04:54;;;;;;;65.43;29.65;;;7.20;99.80;;;;;;5053071;28;20091;-70
2020/12/07 06:07:27;;;;;;;68.22;30.35;;;7.10;99.80;;;;;;5053061;28;20057;-71
2020/12/07 06:09:56;;;;;;;63.10;28.73;;;7.10;99.90;;;;;;5051613;28;20029;-71
2020/12/07 06:12:30;;;;;;;63.80;29.50;;;7.10;99.90;;;;;;5052905;28;20021;-71
2020/12/07 06:14:55;;;;;;;63.75;28.55;;;7.10;99.90;;;;;;5053113;28;20021;-73
2020/12/07 06:17:25;;;;;;;62.25;29.90;;;7.10;99.90;;;;;;5054061;28;20040;-72
2020/12/07 06:19:53;;;;;;;70.25;30.67;;;7.10;99.90;;;;;;5051550;28;20029;-71
2020/12/07 06:22:22;;;;;;;68.07;29.55;;;7.10;99.90;;;;;;5052516;28;20398;-73
2020/12/07 06:24:50;;;;;;;68.13;30.33;;;7.00;99.90;;;;;;5051334;28;20057;-73
2020/12/07 06:27:17;;;;;;;65.03;30.00;;;7.10;99.90;;;;;;5051335;28;20422;-72
2020/12/07 06:29:58;;;;;;;68.78;30.73;;;7.10;99.90;;;;;;5051393;28;20143;-72
2020/12/07 06:32:46;;;;;;;68.68;30.77;;;7.10;99.90;;;;;;5052412;28;20083;-72
2020/12/07 06:35:13;;;;;;;67.22;30.55;;;7.10;99.90;;;;;;5052204;28;20398;-71
2020/12/07 06:37:44;;;;;;;70.30;29.75;;;7.00;99.90;;;;;;5052888;28;20458;-72
2020/12/07 06:40:11;;;;;;;62.72;28.65;;;6.90;99.90;;;;;;5051415;28;20475;-73
2020/12/07 06:42:41;;;;;;;60.33;27.80;;;6.80;99.90;;;;;;5052243;28;20030;-72
2020/12/07 06:45:09;;;;;;;59.70;28.48;;;6.80;99.90;;;;;;5037028;28;20059;-72
2020/12/07 06:47:39;;;;;;;67.50;28.38;;;6.80;99.90;;;;;;5032855;28;20395;-72
2020/12/07 06:50:14;;;;;;;67.10;29.90;;;6.90;99.90;;;;;;5032577;28;20038;-71
2020/12/07 06:52:44;;;;;;;61.60;29.63;;;6.80;99.90;;;;;;5032470;28;20068;-69
2020/12/07 06:55:12;;;;;;;64.38;28.45;;;6.90;99.90;;;;;;5032612;28;20049;-73
2020/12/07 06:57:47;;;;;;;63.47;28.63;;;6.90;99.90;;;;;;5031175;28;20060;-74
2020/12/07 07:00:24;;;;;;;63.20;29.13;;;7.00;99.90;;;;;;5032108;28;20063;-72
2020/12/07 07:02:55;;;;;;;62.78;31.63;;;7.00;99.90;;;;;;5032348;28;20083;-71
2020/12/07 07:05:24;;;;;;;64.72;29.58;;;7.00;99.90;;;;;;5032534;28;20079;-73
2020/12/07 07:07:51;;;;;;;60.78;29.08;;;7.00;99.90;;;;;;5032183;28;20049;-72
2020/12/07 07:10:17;;;;;;;68.43;29.63;;;7.10;99.90;;;;;;5030616;28;20407;-74
2020/12/07 07:12:44;;;;;;;67.35;31.30;;;7.00;99.90;;;;;;5032051;28;20060;-73
2020/12/07 07:15:11;;;;;;;67.57;30.35;;;7.00;99.90;;;;;;5031470;28;20041;-73
2020/12/07 07:17:41;;;;;;;68.18;30.20;;;7.00;99.90;;;;;;5031477;28;20077;-71
2020/12/07 07:20:14;;;;;;;74.55;30.55;;;7.00;99.90;;;;;;5033334;28;20029;-74
2020/12/07 07:22:42;;;;;;;62.50;29.27;;;6.90;99.90;;;;;;5030640;28;20038;-73
2020/12/07 07:30:22;;;;;;;59.70;28.48;;;7.10;99.90;;;;;;5031834;28;20072;-73
2020/12/07 07:32:50;;;;;;;65.35;28.50;;;7.00;99.90;;;;;;5030644;28;20026;-72
2020/12/07 07:35:19;;;;;;;62.88;27.58;;;7.00;99.90;;;;;;5033459;28;20045;-74
2020/12/07 07:37:45;;;;;;;62.88;27.92;;;6.90;99.90;;;;;;5031117;28;20045;-73
2020/12/07 07:40:14;;;;;;;67.10;29.23;;;6.90;99.90;;;;;;5031520;28;20044;-72
2020/12/07 07:42:48;;;;;;;59.20;27.10;;;6.90;99.90;;;;;;5031362;28;20045;-72
2020/12/07 07:45:17;;;;;;;56.00;26.40;;;6.90;99.90;;;;;;5031720;28;20072;-72
2020/12/07 07:48:01;;;;;;;55.28;27.45;;;6.90;99.90;;;;;;5031121;28;20439;-72
2020/12/07 08:17:53;;;;;;;35.10;16.98;;;6.90;99.90;;;;;;5031166;28;20033;-71
2020/12/07 08:20:21;;;;;;;35.88;16.15;;;6.90;99.90;;;;;;5032351;28;20447;-73
2020/12/07 08:22:58;;;;;;;32.35;16.02;;;6.90;99.90;;;;;;5030790;28;20454;-71
2020/12/07 08:25:43;;;;;;;29.27;14.40;;;6.90;99.90;;;;;;5030556;28;20529;-73
2020/12/07 08:28:31;;;;;;;29.15;15.27;;;6.90;99.90;;;;;;5030588;28;20045;-72
2020/12/07 08:31:01;;;;;;;27.05;14.32;;;7.00;99.90;;;;;;5030728;28;20459;-74
2020/12/07 08:33:28;;;;;;;23.20;12.23;;;6.90;99.90;;;;;;5030377;28;20103;-72
2020/12/07 08:35:54;;;;;;;23.92;11.75;;;7.00;99.90;;;;;;5030534;28;20028;-74
2020/12/07 08:38:27;;;;;;;26.65;13.20;;;7.00;99.90;;;;;;5032523;28;20414;-87
2020/12/07 08:41:01;;;;;;;22.98;11.60;;;6.90;99.90;;;;;;5030461;28;20037;-73
2020/12/07 08:43:26;;;;;;;20.75;11.48;;;6.90;99.90;;;;;;5030640;28;20030;-73
2020/12/07 08:45:53;;;;;;;20.55;10.23;;;6.90;99.90;;;;;;5029367;28;20380;-73
2020/12/07 08:48:18;;;;;;;17.75;9.60;;;6.90;99.90;;;;;;5030005;28;20072;-75
2020/12/07 08:50:44;;;;;;;17.77;9.52;;;6.90;99.90;;;;;;5029108;28;20053;-72
2020/12/07 08:53:10;;;;;;;25.00;13.05;;;6.80;99.90;;;;;;5031691;28;20037;-74
2020/12/07 08:55:35;;;;;;;16.00;9.07;;;6.90;99.90;;;;;;5030430;28;20068;-74
2020/12/07 08:58:01;;;;;;;17.75;8.15;;;6.90;99.90;;;;;;5030198;28;20049;-77
2020/12/07 09:00:27;;;;;;;15.88;8.65;;;6.90;99.90;;;;;;5033040;28;20052;-75
2020/12/07 09:02:52;;;;;;;14.02;8.25;;;6.90;99.90;;;;;;5034865;28;20021;-75
2020/12/07 09:05:18;;;;;;;16.48;7.97;;;6.90;99.90;;;;;;5035015;28;20032;-76
2020/12/07 09:07:44;;;;;;;13.65;7.63;;;6.90;99.90;;;;;;5034487;28;20375;-77
2020/12/07 09:10:10;;;;;;;13.07;7.28;;;6.90;99.90;;;;;;5033226;28;20479;-73
2020/12/07 09:12:36;;;;;;;12.35;7.03;;;6.90;99.80;;;;;;5033404;28;20403;-76
2020/12/07 09:15:03;;;;;;;9.23;5.40;;;6.90;99.90;;;;;;5034618;28;20037;-75
2020/12/07 09:17:29;;;;;;;6.60;4.40;;;7.00;99.70;;;;;;5036035;28;20100;-73
2020/12/07 09:19:55;;;;;;;8.10;4.45;;;7.00;99.60;;;;;;5033853;28;20048;-74
2020/12/07 09:22:21;;;;;;;6.03;3.97;;;6.90;99.40;;;;;;5034176;28;20484;-74
2020/12/07 09:24:46;;;;;;;5.47;3.97;;;7.00;99.40;;;;;;5034257;28;20042;-73
2020/12/07 09:27:12;;;;;;;8.77;3.90;;;6.90;99.40;;;;;;5033942;28;20351;-75
2020/12/07 09:29:38;;;;;;;5.03;3.35;;;6.90;99.30;;;;;;5034212;28;20455;-73
2020/12/07 09:32:04;;;;;;;5.57;3.63;;;6.90;99.30;;;;;;5034320;28;20032;-72
2020/12/07 09:34:30;;;;;;;4.53;3.35;;;6.90;99.40;;;;;;5034119;28;20060;-74
2020/12/07 09:36:56;;;;;;;4.47;3.17;;;6.90;99.30;;;;;;5034066;28;20042;-74
2020/12/07 09:39:22;;;;;;;5.60;3.53;;;6.90;99.30;;;;;;5032485;28;20426;-73
2020/12/07 09:41:47;;;;;;;5.93;3.83;;;7.00;99.20;;;;;;5033379;28;20225;-73
2020/12/07 09:44:14;;;;;;;5.18;3.50;;;7.00;99.20;;;;;;5035402;28;20080;-75
2020/12/07 09:46:40;;;;;;;5.72;3.70;;;7.10;99.40;;;;;;5033467;28;20034;-74
2020/12/07 09:49:05;;;;;;;5.97;3.85;;;7.10;99.30;;;;;;5033520;28;20039;-74
2020/12/07 09:51:31;;;;;;;7.03;3.63;;;7.10;99.10;;;;;;5033486;28;20433;-75
2020/12/07 09:53:57;;;;;;;7.63;5.05;;;7.10;99.00;;;;;;5033083;28;20103;-72
2020/12/07 09:56:24;;;;;;;6.25;3.95;;;7.10;99.00;;;;;;5034912;28;20033;-72
2020/12/07 09:58:50;;;;;;;7.10;4.63;;;7.20;99.10;;;;;;5033172;28;20036;-74
2020/12/07 10:01:16;;;;;;;4.95;3.58;;;7.10;99.10;;;;;;5033133;28;20038;-73
2020/12/07 10:03:43;;;;;;;5.38;3.70;;;7.10;99.00;;;;;;5033148;28;20419;-72
2020/12/07 10:06:08;;;;;;;8.43;4.47;;;7.10;99.10;;;;;;5033245;28;20057;-74
2020/12/07 10:08:34;;;;;;;5.80;4.10;;;7.10;99.10;;;;;;5034782;28;20060;-75
2020/12/07 10:11:00;;;;;;;8.23;4.78;;;7.20;99.10;;;;;;5031753;28;20045;-75
2020/12/07 10:13:26;;;;;;;7.57;4.13;;;7.30;99.00;;;;;;5033032;28;20038;-73
2020/12/07 10:15:52;;;;;;;8.32;4.68;;;7.30;99.00;;;;;;5032820;28;20359;-75
2020/12/07 10:18:18;;;;;;;10.73;4.72;;;7.40;98.90;;;;;;5032799;28;20037;-74
2020/12/07 10:20:45;;;;;;;8.10;5.15;;;7.40;98.80;;;;;;5032052;28;20148;-71
2020/12/07 10:23:11;;;;;;;6.13;4.10;;;7.30;98.70;;;;;;5034572;28;20013;-74
2020/12/07 10:25:37;;;;;;;6.43;4.45;;;7.30;98.80;;;;;;5033027;28;20443;-75
2020/12/07 10:28:02;;;;;;;7.82;5.05;;;7.30;98.70;;;;;;5031677;28;20091;-74
2020/12/07 10:30:28;;;;;;;13.98;8.38;;;7.40;98.80;;;;;;5032244;28;20037;-74
2020/12/07 10:32:54;;;;;;;9.27;5.40;;;7.40;98.80;;;;;;5033030;28;20064;-74
2020/12/07 10:35:19;;;;;;;7.13;4.72;;;7.30;98.90;;;;;;5033216;28;20033;-74
2020/12/07 10:37:45;;;;;;;7.15;4.90;;;7.30;98.80;;;;;;5032859;28;20140;-75
2020/12/07 10:40:11;;;;;;;10.20;5.05;;;7.30;98.80;;;;;;5030903;28;20041;-72
2020/12/07 10:42:37;;;;;;;7.18;4.75;;;7.30;98.70;;;;;;5032651;28;20095;-74
2020/12/07 10:45:04;;;;;;;8.25;4.70;;;7.40;98.80;;;;;;5031638;28;20506;-76
2020/12/07 10:47:30;;;;;;;7.97;5.40;;;7.30;98.60;;;;;;5034116;28;20026;-73
2020/12/07 10:49:56;;;;;;;9.07;5.20;;;7.20;98.60;;;;;;5031061;28;20048;-71
2020/12/07 10:52:21;;;;;;;7.95;5.20;;;7.30;98.60;;;;;;5032270;28;20103;-75
2020/12/07 10:54:48;;;;;;;11.38;4.97;;;7.40;98.60;;;;;;5032558;28;20040;-73
2020/12/07 10:57:14;;;;;;;9.88;5.13;;;7.50;98.50;;;;;;5032767;28;20022;-73
2020/12/07 10:59:39;;;;;;;8.30;5.45;;;7.50;98.40;;;;;;5032017;28;20470;-73
2020/12/07 11:02:06;;;;;;;6.75;4.75;;;7.50;98.20;;;;;;5033580;28;20389;-72
2020/12/07 11:04:32;;;;;;;9.52;5.05;;;7.50;98.20;;;;;;5031935;28;20045;-72
2020/12/07 11:07:01;;;;;;;9.20;5.70;;;7.50;98.00;;;;;;5031990;28;20029;-75
2020/12/07 11:09:26;;;;;;;7.85;5.25;;;7.60;98.20;;;;;;5032263;28;20045;-75
2020/12/07 11:11:58;;;;;;;7.70;5.40;;;7.60;98.40;;;;;;5031924;28;20105;-74
2020/12/07 11:14:24;;;;;;;6.30;4.32;;;7.60;98.10;;;;;;5033558;28;20025;-74
2020/12/07 11:16:49;;;;;;;7.50;5.05;;;7.60;97.90;;;;;;5030832;28;20041;-73
2020/12/07 11:19:15;;;;;;;7.10;4.43;;;7.60;97.80;;;;;;5031817;28;20095;-75
2020/12/07 11:21:43;;;;;;;7.10;4.57;;;7.70;97.70;;;;;;5030951;28;20037;-74
2020/12/07 11:24:08;;;;;;;7.50;5.32;;;7.60;97.70;;;;;;5031907;28;20045;-73
2020/12/07 11:26:34;;;;;;;8.85;5.00;;;7.60;97.80;;;;;;5032143;28;20030;-75
2020/12/07 11:29:00;;;;;;;7.13;4.80;;;7.70;98.10;;;;;;5031806;28;20418;-72
2020/12/07 11:31:25;;;;;;;8.75;4.43;;;7.70;97.70;;;;;;5032100;28;20037;-73
2020/12/07 11:33:51;;;;;;;6.43;4.35;;;7.60;97.70;;;;;;5031632;28;20038;-72
2020/12/07 11:36:17;;;;;;;9.40;4.72;;;7.70;97.80;;;;;;5031290;28;20064;-74
2020/12/07 11:39:17;;;;;;;6.25;4.10;;;7.70;97.90;;;;;;5031253;28;20052;-73
2020/12/07 11:41:49;;;;;;;6.93;4.70;;;7.70;97.90;;;;;;5032577;28;20037;-73
2020/12/07 11:44:17;;;;;;;7.70;4.57;;;7.70;98.00;;;;;;5031662;28;20068;-73
2020/12/07 11:46:54;;;;;;;;;;;7.60;97.90;;;;;;5030835;28;20378;-75
2020/12/07 11:49:20;;;;;;;7.32;4.22;;;7.70;98.00;;;;;;5031379;28;19913;-75
2020/12/07 11:51:46;;;;;;;7.03;4.43;;;7.80;97.90;;;;;;5030013;28;20048;-74
2020/12/07 11:54:12;;;;;;;6.30;4.20;;;7.80;97.90;;;;;;5030206;28;20043;-75
2020/12/07 11:56:39;;;;;;;6.82;4.10;;;7.80;97.90;;;;;;5031245;28;20037;-73
2020/12/07 11:59:06;;;;;;;6.93;4.50;;;7.90;97.90;;;;;;5032848;28;20028;-74
2020/12/07 12:01:33;;;;;;;6.00;4.55;;;7.90;98.20;;;;;;5031136;28;20052;-73
2020/12/07 12:04:03;;;;;;;7.63;4.57;;;8.20;98.00;;;;;;5031079;28;20037;-73
2020/12/07 12:06:32;;;;;;;7.55;4.47;;;8.00;97.90;;;;;;5030648;28;20034;-73
2020/12/07 12:08:59;;;;;;;7.32;4.72;;;8.10;97.70;;;;;;5030750;28;20025;-73
2020/12/07 12:11:29;;;;;;;5.68;3.97;;;8.00;97.70;;;;;;5032770;28;20033;-73
2020/12/07 12:13:55;;;;;;;8.38;3.67;;;8.00;97.40;;;;;;5030956;28;20379;-75
2020/12/07 12:16:23;;;;;;;4.35;2.92;;;7.90;97.30;;;;;;5030723;28;20510;-73
2020/12/07 12:18:49;;;;;;;;;;;8.00;97.30;;;;;;5031335;28;20132;-73
2020/12/07 12:21:15;;;;;;;4.75;3.13;;;7.90;97.20;;;;;;5030858;28;19992;-74
2020/12/07 12:23:41;;;;;;;5.20;3.53;;;8.00;97.30;;;;;;5030555;28;20060;-76
2020/12/07 12:26:07;;;;;;;4.88;2.75;;;7.90;97.30;;;;;;5032542;28;20132;-75
2020/12/07 12:28:32;;;;;;;8.00;3.70;;;8.00;97.20;;;;;;5029868;28;20574;-77
2020/12/07 12:30:58;;;;;;;6.25;3.55;;;8.00;97.30;;;;;;5030511;28;20129;-72
2020/12/07 12:33:24;;;;;;;3.72;2.65;;;8.00;97.30;;;;;;5028718;28;20088;-73
2020/12/07 12:35:50;;;;;;;7.53;2.97;;;8.00;97.20;;;;;;5030496;28;20398;-73
2020/12/07 12:38:15;;;;;;;3.33;2.22;;;7.90;97.30;;;;;;5032077;28;20108;-72
2020/12/07 12:40:41;;;;;;;3.80;2.17;;;7.90;97.10;;;;;;5030408;28;20420;-75
2020/12/07 12:43:07;;;;;;;5.13;2.10;;;7.90;97.00;;;;;;5030335;28;20095;-73
2020/12/07 12:45:32;;;;;;;2.10;1.65;;;7.80;96.90;;;;;;5030339;28;20075;-73
2020/12/07 12:47:58;;;;;;;3.53;2.10;;;7.80;96.70;;;;;;5030360;28;20030;-72
2020/12/07 12:50:24;;;;;;;2.72;1.88;;;7.70;96.70;;;;;;5031926;28;20094;-71
2020/12/07 12:52:51;;;;;;;3.42;1.95;;;7.70;96.80;;;;;;5030188;28;20049;-70
2020/12/07 12:55:16;;;;;;;1.88;1.52;;;7.70;96.80;;;;;;5030231;28;20459;-71
2020/12/07 12:57:42;;;;;;;3.83;1.98;;;7.70;96.70;;;;;;5029411;28;20053;-72
2020/12/07 13:00:08;;;;;;;3.25;1.67;;;7.70;96.70;;;;;;5029022;28;20061;-71
2020/12/07 13:02:33;;;;;;;2.38;1.45;;;7.60;96.80;;;;;;5031270;28;20025;-80
2020/12/07 13:04:59;;;;;;;2.70;1.98;;;7.60;96.80;;;;;;5027514;28;20034;-71
2020/12/07 13:07:25;;;;;;;3.33;1.98;;;7.60;96.90;;;;;;5030146;28;20128;-71
2020/12/07 13:09:51;;;;;;;2.55;1.95;;;7.60;97.00;;;;;;5030131;28;20117;-71
2020/12/07 13:12:16;;;;;;;3.78;1.90;;;7.60;96.80;;;;;;5028825;28;20245;-72
2020/12/07 13:14:42;;;;;;;6.47;2.03;;;7.60;96.80;;;;;;5029670;28;20021;-71